METAR Data
IDs: Format: Raw Decoded Include TAF

Data at: 1344 UTC 14 Dec 2019

PFKW 141256Z AUTO 03004KT 10SM FEW048 M06/M07 A2934 RMK AO2 SLP936 T10611067 FZRANO
PFKW 141156Z AUTO 03003KT 10SM OVC046 M05/M06 A2936 RMK AO2 SLP943 60000 70002 T10501056 11028 21056 56014 FZRANO
PFKW 141056Z AUTO 03005KT 10SM SCT002 OVC050 M05/M06 A2937 RMK AO2 SLP946 T10501056 FZRANO
PFKW 141006Z AUTO 02005KT 6SM BR OVC002 M06/M06 A2939 RMK AO2 FZRANO
PFKW 140956Z AUTO 03005KT 2SM BR OVC002 M06/M06 A2939 RMK AO2 SLP954 T10561056 FZRANO
PFKW 140949Z AUTO 03006KT 1 3/4SM BR OVC002 M06/M06 A2940 RMK AO2 FZRANO
PFKW 140935Z AUTO 04003KT 2SM BR OVC002 M05/M06 A2940 RMK AO2 FZRANO
PFKW 140916Z AUTO 03005KT 1SM BR OVC002 M05/M06 A2940 RMK AO2 FZRANO
PFKW 140906Z AUTO 04005KT 1 3/4SM BR OVC002 M05/M06 A2940 RMK AO2 FZRANO
PFKW 140756Z AUTO 04005KT 10SM OVC002 M04/M05 A2940 RMK AO2 SLP955 T10441050 FZRANO
PFKW 140707Z AUTO 05005KT 10SM BKN002 BKN029 OVC033 M03/M04 A2941 RMK AO2 FZRANO
PFKW 140656Z AUTO 06006KT 10SM SCT002 BKN033 OVC070 M03/M04 A2941 RMK AO2 SNE47 SLP961 P0000 T10331039 FZRANO
PFKW 140556Z AUTO 06005KT 4SM -SN BR FEW023 OVC046 M02/M03 A2942 RMK AO2 SLP962 P0000 60000 T10221028 11017 21022 58001 FZRANO
PFKW 140549Z AUTO 06005KT 3SM -SN BR FEW023 SCT032 OVC046 M02/M03 A2942 RMK AO2 P0000 FZRANO
PFKW 140537Z AUTO 06005KT 2 1/2SM -SN BR SCT023 BKN031 OVC038 M02/M03 A2941 RMK AO2 VIS 1 3/4V4 P0000 FZRANO
PFKW 140505Z AUTO 07005KT 4SM -SN BR BKN015 BKN027 OVC048 M02/M03 A2942 RMK AO2 P0000 FZRANO
PFKW 140456Z AUTO 07004KT 4SM -SN BR FEW004 SCT016 OVC048 M02/M03 A2942 RMK AO2 SLP963 P0000 T10221028 FZRANO
PFKW 140452Z AUTO 07004KT 4SM -SN BR SCT004 OVC048 M02/M03 A2942 RMK AO2 P0000 FZRANO
PFKW 140356Z AUTO 07005KT 9SM -SN OVC004 M02/M02 A2942 RMK AO2 SLP963 P0000 T10221022 FZRANO
PFKW 140331Z AUTO 07005KT 8SM -SN BKN004 BKN007 OVC014 M02/M02 A2942 RMK AO2 P0000 FZRANO
PFKW 140321Z AUTO 07004KT 8SM -SN SCT004 OVC014 M02/M02 A2942 RMK AO2 P0000 FZRANO
PFKW 140315Z AUTO 06004KT 8SM -SN BKN004 OVC011 M02/M02 A2942 RMK AO2 CIG 003V008 P0000 FZRANO
PFKW 140256Z AUTO 08003KT 6SM -SN BR SCT004 BKN010 OVC048 M02/M02 A2942 RMK AO2 CIG 009V012 SLP962 P0000 60000 T10221022 51002 FZRANO
PFKW 140235Z AUTO 07003KT 4SM -SN BR SCT029 BKN034 OVC048 M02/M02 A2941 RMK AO2 P0000 FZRANO
PFKW 140228Z AUTO 07004KT 3SM -SN BR BKN029 OVC038 M02/M02 A2941 RMK AO2 P0000 FZRANO
PFKW 140207Z AUTO 08004KT 2 1/2SM -SN BR SCT003 BKN012 OVC040 M02/M03 A2941 RMK AO2 VIS 1 1/2V5 P0000 FZRANO
PFKW 140156Z AUTO 00000KT 4SM -SN BR BKN003 OVC012 M02/M03 A2941 RMK AO2 SLP961 P0000 T10171028 FZRANO
PFKW 140141Z AUTO 00000KT 7SM -SN OVC003 M02/M03 A2941 RMK AO2 P0000 FZRANO
PFKW 140056Z AUTO 18003KT 9SM -SN OVC005 M02/M03 A2941 RMK AO2 SLP960 P0000 T10171028 FZRANO
PFKW 140005Z AUTO 17003KT 8SM -SN OVC005 M02/M03 A2940 RMK AO2 P0000 FZRANO
PFKW 132356Z AUTO 00000KT 2SM -SN BR OVC005 M03/M03 A2940 RMK AO2 SLP955 P0002 60002 T10281033 11028 21072 51007 FZRANO
PFKW 132353Z AUTO 00000KT 1 1/2SM -SN BR BKN005 OVC022 M03/M03 A2940 RMK AO2 P0002 FZRANO
PFKW 132346Z AUTO 13003KT 1SM -SN BR BKN005 OVC024 M03/M04 A2940 RMK AO2 P0002 FZRANO
PFKW 132337Z AUTO 14003KT 1SM -SN BR SCT005 BKN023 OVC027 M03/M04 A2940 RMK AO2 P0001 FZRANO
PFKW 132256Z AUTO 00000KT 2 1/2SM -SN BR BKN022 BKN027 OVC038 M03/M04 A2939 RMK AO2 SLP951 P0000 T10331044 FZRANO
PFKW 132227Z AUTO 12003KT 1 1/2SM -SN BR SCT005 BKN022 OVC032 M04/M05 A2938 RMK AO2 VIS 1V3 P0000 FZRANO
PFKW 132219Z AUTO 11004KT 2 1/2SM -SN BR BKN005 BKN010 OVC035 M04/M05 A2938 RMK AO2 VIS 1 1/2V3 P0000 FZRANO
PFKW 132156Z AUTO 10004KT 9SM -SN OVC005 M04/M06 A2938 RMK AO2 SNB22 SLP948 P0000 T10441056 FZRANO
PFKW 132134Z AUTO 10004KT 5SM BR BKN005 OVC009 M04/M06 A2936 RMK AO2 SNB22E33 P0000 FZRANO
PFKW 132118Z AUTO 09003KT 2 1/2SM BR BKN005 OVC009 M04/M06 A2936 RMK AO2 VIS 1 1/2V5 CIG 004V008 FZRANO
PFKW 131956Z AUTO 10004KT 10SM OVC012 M06/M07 A2933 RMK AO2 SLP934 T10611072 FZRANO
PFKW 131926Z AUTO 08004KT 10SM BKN012 OVC023 M06/M08 A2932 RMK AO2 FZRANO
PFKW 131756Z AUTO 06003KT 10SM BKN023 OVC100 M07/M09 A2930 RMK AO2 SLP921 60000 T10721089 11072 21078 51015 FZRANO
PFKW 131648Z AUTO 02003KT 10SM SCT008 OVC029 M08/M09 A2927 RMK AO2 FZRANO
PFKW 131631Z AUTO 08003KT 10SM SCT008 BKN029 OVC100 M08/M09 A2928 RMK AO2 FZRANO
PFKW 131608Z AUTO 07003KT 10SM FEW008 SCT033 BKN110 M08/M09 A2927 RMK AO2 FZRANO
PFKW 131556Z AUTO 00000KT 10SM FEW035 SCT085 M08/M09 A2927 RMK AO2 UPB14E19B42E48SNE14B19E42 SLP913 P0000 T10781089 FZRANO
PFKW 131456Z AUTO 03003KT 10SM -SN OVC065 M07/M09 A2925 RMK AO2 UPB06E17SNE06B22 SLP906 P0000 60000 T10721089 50003 FZRANO
PFKW 131356Z AUTO 04005KT 9SM -SN OVC060 M07/M09 A2926 RMK AO2 SNB18 SLP908 P0000 T10721094 FZRANO
PFKW 131256Z AUTO 05005KT 10SM OVC060 M07/M09 A2926 RMK AO2 SLP907 T10721094 FZRANO
PFKW 131156Z AUTO 06005KT 10SM BKN060 BKN075 BKN120 M08/M09 A2924 RMK AO2 SLP903 T10781094 11061 21078 50000 FZRANO
PFKW 131056Z AUTO 04006KT 10SM SCT070 M07/M09 A2925 RMK AO2 SLP904 T10721089 FZRANO
PFKW 130956Z AUTO 01007KT 10SM BKN075 OVC095 M07/M09 A2924 RMK AO2 SLP903 T10671089 FZRANO
PFKW 130856Z AUTO 36005KT 10SM BKN065 BKN080 M07/M09 A2924 RMK AO2 SLP903 T10671089 410281067 53008 FZRANO
PFKW 130756Z AUTO 01005KT 10SM FEW060 SCT080 OVC100 M07/M08 A2923 RMK AO2 SLP897 T10671083 FZRANO
PFKW 130556Z AUTO 02005KT 10SM FEW110 M06/M08 A2922 RMK AO2 SLP895 T10611083 11033 21061 58003 FZRANO
PFKW 130156Z AUTO 03009KT 10SM CLR M04/M07 A2922 RMK AO2 SLP896 T10441072 FZRANO